sensor_id;sensor_type;location;lat;lon;timestamp;P1;durP1;ratioP1;P2;durP2;ratioP2
29344;SDS011;16339;48.748;2.222;2023-07-24T07:01:47;5.00;;;2.65;;
29344;SDS011;16339;48.748;2.222;2023-07-24T07:04:19;3.65;;;2.30;;
29344;SDS011;16339;48.748;2.222;2023-07-24T07:06:52;5.30;;;2.40;;
29344;SDS011;16339;48.748;2.222;2023-07-24T07:09:22;7.22;;;3.38;;
29344;SDS011;16339;48.748;2.222;2023-07-24T07:11:51;8.35;;;2.45;;
29344;SDS011;16339;48.748;2.222;2023-07-24T07:14:20;3.70;;;1.88;;
29344;SDS011;16339;48.748;2.222;2023-07-24T07:16:51;8.30;;;2.33;;
29344;SDS011;16339;48.748;2.222;2023-07-24T07:21:48;4.40;;;2.05;;
29344;SDS011;16339;48.748;2.222;2023-07-24T07:24:17;2.58;;;1.77;;
29344;SDS011;16339;48.748;2.222;2023-07-24T07:26:46;3.28;;;1.80;;
29344;SDS011;16339;48.748;2.222;2023-07-24T07:29:14;4.53;;;1.85;;
29344;SDS011;16339;48.748;2.222;2023-07-24T07:31:43;8.07;;;2.65;;
29344;SDS011;16339;48.748;2.222;2023-07-24T07:34:17;4.97;;;2.10;;
29344;SDS011;16339;48.748;2.222;2023-07-24T07:36:46;8.73;;;2.00;;
29344;SDS011;16339;48.748;2.222;2023-07-24T07:39:14;8.63;;;2.03;;
29344;SDS011;16339;48.748;2.222;2023-07-24T07:41:43;4.10;;;2.25;;
29344;SDS011;16339;48.748;2.222;2023-07-24T07:44:12;4.38;;;2.13;;
29344;SDS011;16339;48.748;2.222;2023-07-24T07:46:42;7.35;;;2.53;;
29344;SDS011;16339;48.748;2.222;2023-07-24T07:49:11;7.20;;;2.15;;
29344;SDS011;16339;48.748;2.222;2023-07-24T07:51:42;4.45;;;2.00;;
29344;SDS011;16339;48.748;2.222;2023-07-24T07:56:40;4.50;;;1.92;;
29344;SDS011;16339;48.748;2.222;2023-07-24T07:59:09;4.38;;;1.95;;
29344;SDS011;16339;48.748;2.222;2023-07-24T08:01:38;1.88;;;1.70;;
29344;SDS011;16339;48.748;2.222;2023-07-24T08:04:07;8.60;;;2.72;;
29344;SDS011;16339;48.748;2.222;2023-07-24T08:06:36;4.05;;;1.90;;
29344;SDS011;16339;48.748;2.222;2023-07-24T08:09:07;2.47;;;2.08;;
29344;SDS011;16339;48.748;2.222;2023-07-24T08:14:05;3.03;;;1.75;;
29344;SDS011;16339;48.748;2.222;2023-07-24T08:16:33;2.97;;;1.80;;
29344;SDS011;16339;48.748;2.222;2023-07-24T08:19:05;4.70;;;1.90;;
29344;SDS011;16339;48.748;2.222;2023-07-24T08:21:34;2.45;;;1.80;;
29344;SDS011;16339;48.748;2.222;2023-07-24T08:24:07;3.85;;;1.92;;
29344;SDS011;16339;48.748;2.222;2023-07-24T08:26:35;7.38;;;2.15;;
29344;SDS011;16339;48.748;2.222;2023-07-24T08:29:04;4.00;;;1.83;;
29344;SDS011;16339;48.748;2.222;2023-07-24T08:31:33;6.18;;;2.05;;
29344;SDS011;16339;48.748;2.222;2023-07-24T08:34:02;4.35;;;1.85;;
29344;SDS011;16339;48.748;2.222;2023-07-24T08:36:33;4.40;;;1.98;;
29344;SDS011;16339;48.748;2.222;2023-07-24T08:39:02;4.18;;;2.00;;
29344;SDS011;16339;48.748;2.222;2023-07-24T08:41:34;3.50;;;1.73;;
29344;SDS011;16339;48.748;2.222;2023-07-24T08:44:05;6.25;;;1.80;;
29344;SDS011;16339;48.748;2.222;2023-07-24T08:46:35;2.83;;;1.73;;
29344;SDS011;16339;48.748;2.222;2023-07-24T08:49:06;8.77;;;2.10;;
29344;SDS011;16339;48.748;2.222;2023-07-24T08:51:41;3.55;;;1.67;;
29344;SDS011;16339;48.748;2.222;2023-07-24T08:54:10;2.33;;;1.70;;
29344;SDS011;16339;48.748;2.222;2023-07-24T08:56:42;7.90;;;2.10;;
29344;SDS011;16339;48.748;2.222;2023-07-24T08:59:12;2.58;;;1.80;;
29344;SDS011;16339;48.748;2.222;2023-07-24T09:01:41;3.63;;;2.05;;
29344;SDS011;16339;48.748;2.222;2023-07-24T09:04:09;2.97;;;1.80;;
29344;SDS011;16339;48.748;2.222;2023-07-24T09:06:38;12.02;;;2.25;;
29344;SDS011;16339;48.748;2.222;2023-07-24T09:09:12;3.70;;;1.67;;
29344;SDS011;16339;48.748;2.222;2023-07-24T09:11:50;5.68;;;1.92;;
29344;SDS011;16339;48.748;2.222;2023-07-24T09:14:23;2.75;;;1.70;;
29344;SDS011;16339;48.748;2.222;2023-07-24T09:17:03;2.50;;;1.65;;
29344;SDS011;16339;48.748;2.222;2023-07-24T09:19:35;5.35;;;1.88;;
29344;SDS011;16339;48.748;2.222;2023-07-24T09:22:14;5.75;;;1.95;;
29344;SDS011;16339;48.748;2.222;2023-07-24T09:24:49;3.15;;;2.17;;
29344;SDS011;16339;48.748;2.222;2023-07-24T09:27:20;4.07;;;2.13;;
29344;SDS011;16339;48.748;2.222;2023-07-24T09:30:12;7.03;;;1.85;;
29344;SDS011;16339;48.748;2.222;2023-07-24T09:32:51;3.05;;;2.00;;
29344;SDS011;16339;48.748;2.222;2023-07-24T09:35:23;4.43;;;2.20;;
29344;SDS011;16339;48.748;2.222;2023-07-24T09:38:01;3.80;;;1.98;;
29344;SDS011;16339;48.748;2.222;2023-07-24T09:40:38;2.97;;;1.88;;
29344;SDS011;16339;48.748;2.222;2023-07-24T09:43:18;3.70;;;1.92;;
29344;SDS011;16339;48.748;2.222;2023-07-24T09:45:48;2.78;;;1.90;;
29344;SDS011;16339;48.748;2.222;2023-07-24T09:48:18;4.00;;;1.88;;
29344;SDS011;16339;48.748;2.222;2023-07-24T09:50:52;3.85;;;1.85;;
29344;SDS011;16339;48.748;2.222;2023-07-24T09:53:28;6.57;;;1.98;;
29344;SDS011;16339;48.748;2.222;2023-07-24T09:56:20;6.82;;;1.67;;
29344;SDS011;16339;48.748;2.222;2023-07-24T09:58:53;4.05;;;1.70;;
29344;SDS011;16339;48.748;2.222;2023-07-24T10:01:24;4.85;;;1.88;;
29344;SDS011;16339;48.748;2.222;2023-07-24T10:03:53;5.22;;;1.60;;
29344;SDS011;16339;48.748;2.222;2023-07-24T10:06:38;3.45;;;1.63;;
29344;SDS011;16339;48.748;2.222;2023-07-24T10:09:11;3.28;;;1.85;;
29344;SDS011;16339;48.748;2.222;2023-07-24T10:11:40;4.93;;;2.20;;
29344;SDS011;16339;48.748;2.222;2023-07-24T10:14:12;2.50;;;1.65;;
29344;SDS011;16339;48.748;2.222;2023-07-24T10:16:40;3.60;;;1.90;;
29344;SDS011;16339;48.748;2.222;2023-07-24T10:19:13;7.35;;;1.80;;
29344;SDS011;16339;48.748;2.222;2023-07-24T10:21:46;7.68;;;2.15;;
29344;SDS011;16339;48.748;2.222;2023-07-24T10:24:15;3.40;;;2.22;;
29344;SDS011;16339;48.748;2.222;2023-07-24T10:26:54;5.15;;;2.05;;
29344;SDS011;16339;48.748;2.222;2023-07-24T10:29:29;4.25;;;1.83;;
29344;SDS011;16339;48.748;2.222;2023-07-24T10:32:03;2.25;;;1.70;;
29344;SDS011;16339;48.748;2.222;2023-07-24T10:34:41;2.78;;;1.85;;
29344;SDS011;16339;48.748;2.222;2023-07-24T10:37:10;3.38;;;1.88;;
29344;SDS011;16339;48.748;2.222;2023-07-24T10:39:39;2.60;;;1.63;;
29344;SDS011;16339;48.748;2.222;2023-07-24T10:42:11;3.25;;;1.60;;
29344;SDS011;16339;48.748;2.222;2023-07-24T10:44:43;2.47;;;1.65;;
29344;SDS011;16339;48.748;2.222;2023-07-24T10:47:11;3.15;;;1.85;;
29344;SDS011;16339;48.748;2.222;2023-07-24T10:49:48;5.45;;;1.77;;
29344;SDS011;16339;48.748;2.222;2023-07-24T10:52:17;2.30;;;1.80;;
29344;SDS011;16339;48.748;2.222;2023-07-24T10:54:50;3.10;;;1.60;;
29344;SDS011;16339;48.748;2.222;2023-07-24T10:57:25;3.58;;;1.60;;
29344;SDS011;16339;48.748;2.222;2023-07-24T10:59:57;3.28;;;2.00;;
29344;SDS011;16339;48.748;2.222;2023-07-24T11:02:29;4.60;;;2.10;;
29344;SDS011;16339;48.748;2.222;2023-07-24T11:05:01;2.53;;;1.70;;
29344;SDS011;16339;48.748;2.222;2023-07-24T11:07:33;7.28;;;2.00;;
29344;SDS011;16339;48.748;2.222;2023-07-24T11:10:13;7.30;;;1.80;;
29344;SDS011;16339;48.748;2.222;2023-07-24T11:12:43;7.65;;;2.08;;
29344;SDS011;16339;48.748;2.222;2023-07-24T11:15:14;3.10;;;1.67;;
29344;SDS011;16339;48.748;2.222;2023-07-24T11:17:46;3.47;;;1.83;;
29344;SDS011;16339;48.748;2.222;2023-07-24T11:20:15;3.13;;;2.20;;
29344;SDS011;16339;48.748;2.222;2023-07-24T11:22:50;3.83;;;1.95;;
29344;SDS011;16339;48.748;2.222;2023-07-24T11:25:20;7.67;;;2.00;;
29344;SDS011;16339;48.748;2.222;2023-07-24T11:27:50;4.90;;;1.85;;
29344;SDS011;16339;48.748;2.222;2023-07-24T11:30:21;3.22;;;1.88;;
29344;SDS011;16339;48.748;2.222;2023-07-24T11:32:53;2.67;;;1.90;;
29344;SDS011;16339;48.748;2.222;2023-07-24T11:35:24;3.22;;;1.92;;
29344;SDS011;16339;48.748;2.222;2023-07-24T11:37:53;4.63;;;1.98;;
29344;SDS011;16339;48.748;2.222;2023-07-24T11:40:30;2.97;;;1.65;;
29344;SDS011;16339;48.748;2.222;2023-07-24T11:43:02;4.22;;;2.00;;
29344;SDS011;16339;48.748;2.222;2023-07-24T11:45:42;4.22;;;2.00;;
29344;SDS011;16339;48.748;2.222;2023-07-24T11:48:12;7.45;;;2.05;;
29344;SDS011;16339;48.748;2.222;2023-07-24T11:50:41;3.58;;;2.30;;
29344;SDS011;16339;48.748;2.222;2023-07-24T11:53:19;2.78;;;2.20;;
29344;SDS011;16339;48.748;2.222;2023-07-24T11:55:51;5.50;;;1.98;;
29344;SDS011;16339;48.748;2.222;2023-07-24T11:58:25;8.45;;;1.85;;
29344;SDS011;16339;48.748;2.222;2023-07-24T12:00:58;3.97;;;2.00;;
29344;SDS011;16339;48.748;2.222;2023-07-24T12:03:29;6.32;;;2.08;;
29344;SDS011;16339;48.748;2.222;2023-07-24T12:06:03;6.78;;;2.17;;
29344;SDS011;16339;48.748;2.222;2023-07-24T12:08:32;6.00;;;2.08;;
29344;SDS011;16339;48.748;2.222;2023-07-24T12:11:02;7.10;;;2.42;;
29344;SDS011;16339;48.748;2.222;2023-07-24T12:13:31;7.00;;;2.30;;
29344;SDS011;16339;48.748;2.222;2023-07-24T12:16:03;5.80;;;2.65;;
29344;SDS011;16339;48.748;2.222;2023-07-24T12:18:34;3.60;;;1.90;;
29344;SDS011;16339;48.748;2.222;2023-07-24T12:21:16;5.05;;;1.83;;
29344;SDS011;16339;48.748;2.222;2023-07-24T12:23:50;2.88;;;2.13;;
29344;SDS011;16339;48.748;2.222;2023-07-24T12:26:19;3.85;;;2.38;;
29344;SDS011;16339;48.748;2.222;2023-07-24T12:28:50;4.30;;;2.20;;
29344;SDS011;16339;48.748;2.222;2023-07-24T12:31:21;6.82;;;2.42;;
29344;SDS011;16339;48.748;2.222;2023-07-24T12:33:51;3.75;;;2.58;;
29344;SDS011;16339;48.748;2.222;2023-07-24T12:36:22;7.53;;;2.45;;
29344;SDS011;16339;48.748;2.222;2023-07-24T12:38:54;5.97;;;2.20;;
29344;SDS011;16339;48.748;2.222;2023-07-24T12:41:23;3.72;;;2.15;;
29344;SDS011;16339;48.748;2.222;2023-07-24T12:44:02;7.28;;;1.90;;
29344;SDS011;16339;48.748;2.222;2023-07-24T12:46:34;4.75;;;2.15;;
29344;SDS011;16339;48.748;2.222;2023-07-24T12:49:03;3.28;;;1.80;;
29344;SDS011;16339;48.748;2.222;2023-07-24T12:51:31;3.33;;;2.20;;
29344;SDS011;16339;48.748;2.222;2023-07-24T12:54:03;3.65;;;1.60;;
29344;SDS011;16339;48.748;2.222;2023-07-24T12:56:47;7.88;;;2.00;;
29344;SDS011;16339;48.748;2.222;2023-07-24T12:59:16;3.67;;;1.90;;
29344;SDS011;16339;48.748;2.222;2023-07-24T13:01:51;3.03;;;1.48;;
29344;SDS011;16339;48.748;2.222;2023-07-24T13:04:20;5.57;;;2.10;;
29344;SDS011;16339;48.748;2.222;2023-07-24T13:06:50;3.13;;;1.73;;
29344;SDS011;16339;48.748;2.222;2023-07-24T13:09:19;2.65;;;1.50;;
29344;SDS011;16339;48.748;2.222;2023-07-24T13:11:49;3.17;;;1.75;;
29344;SDS011;16339;48.748;2.222;2023-07-24T13:14:19;4.85;;;1.35;;
29344;SDS011;16339;48.748;2.222;2023-07-24T13:16:52;2.08;;;1.20;;
29344;SDS011;16339;48.748;2.222;2023-07-24T13:19:21;2.65;;;1.33;;
29344;SDS011;16339;48.748;2.222;2023-07-24T13:21:50;4.57;;;1.20;;
29344;SDS011;16339;48.748;2.222;2023-07-24T13:24:18;5.03;;;1.38;;
29344;SDS011;16339;48.748;2.222;2023-07-24T13:26:47;1.10;;;1.02;;
29344;SDS011;16339;48.748;2.222;2023-07-24T13:29:16;6.00;;;1.30;;
29344;SDS011;16339;48.748;2.222;2023-07-24T13:31:45;5.43;;;1.35;;
29344;SDS011;16339;48.748;2.222;2023-07-24T13:34:16;2.45;;;1.10;;
29344;SDS011;16339;48.748;2.222;2023-07-24T13:36:45;2.05;;;1.15;;
29344;SDS011;16339;48.748;2.222;2023-07-24T13:39:14;3.58;;;0.90;;
29344;SDS011;16339;48.748;2.222;2023-07-24T13:41:43;3.47;;;1.10;;
29344;SDS011;16339;48.748;2.222;2023-07-24T13:44:12;3.90;;;1.08;;
29344;SDS011;16339;48.748;2.222;2023-07-24T13:46:41;2.85;;;1.20;;
29344;SDS011;16339;48.748;2.222;2023-07-24T13:49:09;5.35;;;1.13;;
29344;SDS011;16339;48.748;2.222;2023-07-24T13:51:43;2.53;;;0.98;;
29344;SDS011;16339;48.748;2.222;2023-07-24T13:54:12;1.60;;;1.00;;
29344;SDS011;16339;48.748;2.222;2023-07-24T13:56:41;1.52;;;1.42;;
29344;SDS011;16339;48.748;2.222;2023-07-24T13:59:09;0.80;;;0.80;;
29344;SDS011;16339;48.748;2.222;2023-07-24T14:01:40;2.63;;;1.08;;
29344;SDS011;16339;48.748;2.222;2023-07-24T14:04:11;1.10;;;0.90;;
29344;SDS011;16339;48.748;2.222;2023-07-24T14:06:39;1.55;;;0.88;;
29344;SDS011;16339;48.748;2.222;2023-07-24T14:09:11;2.60;;;1.17;;
29344;SDS011;16339;48.748;2.222;2023-07-24T14:11:40;1.48;;;1.00;;
29344;SDS011;16339;48.748;2.222;2023-07-24T14:14:09;1.63;;;1.17;;
29344;SDS011;16339;48.748;2.222;2023-07-24T14:16:40;4.53;;;1.30;;
29344;SDS011;16339;48.748;2.222;2023-07-24T14:19:09;2.95;;;1.30;;
29344;SDS011;16339;48.748;2.222;2023-07-24T14:21:38;1.95;;;1.33;;
29344;SDS011;16339;48.748;2.222;2023-07-24T14:24:09;2.70;;;1.55;;
29344;SDS011;16339;48.748;2.222;2023-07-24T14:26:41;2.95;;;1.20;;
29344;SDS011;16339;48.748;2.222;2023-07-24T14:29:10;7.10;;;1.58;;
29344;SDS011;16339;48.748;2.222;2023-07-24T14:31:48;6.60;;;1.60;;
29344;SDS011;16339;48.748;2.222;2023-07-24T14:34:16;2.95;;;1.30;;
29344;SDS011;16339;48.748;2.222;2023-07-24T14:36:45;2.95;;;1.40;;
29344;SDS011;16339;48.748;2.222;2023-07-24T14:39:16;3.10;;;1.33;;
29344;SDS011;16339;48.748;2.222;2023-07-24T14:41:47;2.47;;;1.30;;
29344;SDS011;16339;48.748;2.222;2023-07-24T14:46:44;5.82;;;1.30;;
29344;SDS011;16339;48.748;2.222;2023-07-24T14:49:13;4.63;;;1.33;;
29344;SDS011;16339;48.748;2.222;2023-07-24T14:51:43;10.25;;;1.25;;
29344;SDS011;16339;48.748;2.222;2023-07-24T14:54:12;4.68;;;1.50;;
29344;SDS011;16339;48.748;2.222;2023-07-24T14:56:43;2.00;;;0.98;;
29344;SDS011;16339;48.748;2.222;2023-07-24T14:59:12;3.17;;;1.35;;
29344;SDS011;16339;48.748;2.222;2023-07-24T15:01:40;1.58;;;1.02;;
29344;SDS011;16339;48.748;2.222;2023-07-24T15:04:09;1.65;;;0.82;;
29344;SDS011;16339;48.748;2.222;2023-07-24T15:06:38;1.33;;;0.90;;
29344;SDS011;16339;48.748;2.222;2023-07-24T15:09:07;4.03;;;1.20;;
29344;SDS011;16339;48.748;2.222;2023-07-24T15:11:39;5.63;;;1.20;;
29344;SDS011;16339;48.748;2.222;2023-07-24T15:14:10;2.13;;;0.98;;
29344;SDS011;16339;48.748;2.222;2023-07-24T15:16:39;4.13;;;0.98;;
29344;SDS011;16339;48.748;2.222;2023-07-24T15:19:08;1.23;;;1.10;;
29344;SDS011;16339;48.748;2.222;2023-07-24T15:21:36;1.40;;;1.10;;
29344;SDS011;16339;48.748;2.222;2023-07-24T15:24:05;1.00;;;0.90;;
29344;SDS011;16339;48.748;2.222;2023-07-24T15:26:34;5.47;;;1.38;;
29344;SDS011;16339;48.748;2.222;2023-07-24T15:29:02;3.70;;;1.10;;
29344;SDS011;16339;48.748;2.222;2023-07-24T15:31:34;1.23;;;0.90;;
29344;SDS011;16339;48.748;2.222;2023-07-24T15:34:02;7.07;;;1.38;;
29344;SDS011;16339;48.748;2.222;2023-07-24T15:36:32;1.67;;;1.10;;
29344;SDS011;16339;48.748;2.222;2023-07-24T15:39:02;6.10;;;1.10;;
29344;SDS011;16339;48.748;2.222;2023-07-24T15:41:31;1.45;;;0.90;;
29344;SDS011;16339;48.748;2.222;2023-07-24T15:43:59;2.95;;;1.13;;
29344;SDS011;16339;48.748;2.222;2023-07-24T15:46:28;0.90;;;0.90;;
29344;SDS011;16339;48.748;2.222;2023-07-24T15:48:59;2.78;;;1.17;;
29344;SDS011;16339;48.748;2.222;2023-07-24T15:51:28;2.15;;;1.10;;
29344;SDS011;16339;48.748;2.222;2023-07-24T15:54:00;2.03;;;1.10;;
29344;SDS011;16339;48.748;2.222;2023-07-24T15:56:33;2.08;;;1.20;;
29344;SDS011;16339;48.748;2.222;2023-07-24T15:59:01;4.10;;;1.20;;
29344;SDS011;16339;48.748;2.222;2023-07-24T16:01:30;6.43;;;1.23;;
29344;SDS011;16339;48.748;2.222;2023-07-24T16:04:01;1.08;;;0.82;;
29344;SDS011;16339;48.748;2.222;2023-07-24T16:06:30;1.33;;;1.13;;
29344;SDS011;16339;48.748;2.222;2023-07-24T16:08:59;1.70;;;1.10;;
29344;SDS011;16339;48.748;2.222;2023-07-24T16:11:28;2.05;;;1.10;;
29344;SDS011;16339;48.748;2.222;2023-07-24T16:13:57;3.65;;;1.05;;
29344;SDS011;16339;48.748;2.222;2023-07-24T16:16:25;8.00;;;1.23;;
29344;SDS011;16339;48.748;2.222;2023-07-24T16:21:41;2.42;;;1.10;;
29344;SDS011;16339;48.748;2.222;2023-07-24T16:24:11;1.67;;;1.10;;
29344;SDS011;16339;48.748;2.222;2023-07-24T16:26:42;1.27;;;1.15;;
29344;SDS011;16339;48.748;2.222;2023-07-24T16:29:11;2.17;;;1.30;;
29344;SDS011;16339;48.748;2.222;2023-07-24T16:31:40;1.38;;;1.27;;
29344;SDS011;16339;48.748;2.222;2023-07-24T16:34:09;1.75;;;1.38;;
29344;SDS011;16339;48.748;2.222;2023-07-24T16:36:40;3.30;;;1.42;;
29344;SDS011;16339;48.748;2.222;2023-07-24T16:39:09;2.90;;;1.33;;
29344;SDS011;16339;48.748;2.222;2023-07-24T16:59:05;11.85;;;3.00;;
29344;SDS011;16339;48.748;2.222;2023-07-24T17:01:34;7.05;;;3.10;;
29344;SDS011;16339;48.748;2.222;2023-07-24T17:04:09;6.38;;;2.30;;
29344;SDS011;16339;48.748;2.222;2023-07-24T17:06:37;7.55;;;2.90;;
29344;SDS011;16339;48.748;2.222;2023-07-24T17:09:12;8.68;;;3.13;;
29344;SDS011;16339;48.748;2.222;2023-07-24T17:12:05;9.38;;;3.88;;
29344;SDS011;16339;48.748;2.222;2023-07-24T17:15:09;9.60;;;3.42;;
29344;SDS011;16339;48.748;2.222;2023-07-24T18:03:19;5.05;;;2.10;;
29344;SDS011;16339;48.748;2.222;2023-07-24T21:39:01;7.28;;;3.13;;
29344;SDS011;16339;48.748;2.222;2023-07-24T21:41:55;9.23;;;3.45;;
29344;SDS011;16339;48.748;2.222;2023-07-24T21:44:54;7.85;;;3.28;;
29344;SDS011;16339;48.748;2.222;2023-07-24T21:47:50;6.03;;;3.08;;
29344;SDS011;16339;48.748;2.222;2023-07-24T21:50:32;8.02;;;3.28;;
29344;SDS011;16339;48.748;2.222;2023-07-24T21:53:05;8.60;;;3.08;;
29344;SDS011;16339;48.748;2.222;2023-07-24T21:55:52;5.50;;;2.75;;
29344;SDS011;16339;48.748;2.222;2023-07-24T21:58:36;6.45;;;2.70;;
29344;SDS011;16339;48.748;2.222;2023-07-24T22:01:48;8.63;;;3.00;;
29344;SDS011;16339;48.748;2.222;2023-07-24T22:04:38;11.77;;;2.78;;
29344;SDS011;16339;48.748;2.222;2023-07-24T22:10:40;3.80;;;2.60;;
29344;SDS011;16339;48.748;2.222;2023-07-24T22:13:20;8.98;;;3.28;;
29344;SDS011;16339;48.748;2.222;2023-07-24T22:16:00;4.07;;;2.78;;
29344;SDS011;16339;48.748;2.222;2023-07-24T22:18:30;4.80;;;2.80;;
29344;SDS011;16339;48.748;2.222;2023-07-24T22:21:18;10.23;;;2.88;;
29344;SDS011;16339;48.748;2.222;2023-07-24T22:23:58;2.63;;;2.35;;
29344;SDS011;16339;48.748;2.222;2023-07-24T22:36:09;5.55;;;2.80;;
29344;SDS011;16339;48.748;2.222;2023-07-24T22:38:47;4.45;;;3.00;;
29344;SDS011;16339;48.748;2.222;2023-07-24T22:41:38;5.05;;;2.47;;
